Nearby METAR Reports

 

KMQS - Coatesville, Pennsylvania, USA
Distance from station: ENE 6mi, 10km
Updated: Mon, 22-Apr-2019 5:35pm EDT
Partly cloudy
Partly cloudy
 Wind from NNW
Wind: NNW 10 mph , 17 km/h
Temperature: 66°F , 19°C
Dew Point: 50°F , 10°C
Humidity: 56%
Barometer: 30.04 inHg , 1017.3 hPa
Clouds: Partly cloudy
Visibility: 10 miles , 16 km
Cloud details: Partly cloudy 4200 ft
2019/04/22 21:35 KMQS 222135Z AUTO 33009KT 10SM SCT042 19/10 A3004 RMK AO2
KLNS - Lancaster, Pennsylvania, USA
Distance from station: NW 21mi, 33km
Updated: Mon, 22-Apr-2019 5:53pm EDT
Clear
Clear
 Wind from NNW
Wind: NNW 12 mph , 19 km/h
Temperature: 70°F , 21°C
Dew Point: 50°F , 10°C
Humidity: 50%
Barometer: 30.03 inHg , 1016.9 hPa
Clouds: Clear
Visibility: 10 miles , 16 km
2019/04/22 21:53 KLNS 222153Z 34010KT 10SM CLR 21/10 A3003 RMK AO2 SLP168 T02110100
 
KILG - Wilmington, Delaware, USA
Distance from station: SE 28mi, 45km
Updated: Mon, 22-Apr-2019 5:51pm EDT
Mostly cloudy
Mostly cloudy
 Wind from N
Wind: N 9 mph , 15 km/h
Temperature: 66°F , 19°C
Dew Point: 52°F , 11°C
Humidity: 60%
Barometer: 30.02 inHg , 1016.6 hPa
Clouds: Mostly cloudy
Visibility: 10 miles , 16 km
Cloud details: Few Clouds 4200 ft
Mostly cloudy 10000 ft
2019/04/22 21:51 KILG 222151Z 36008KT 10SM FEW042 BKN100 19/11 A3002 RMK AO2 RAB04E43 SLP165 P0000 T01940106 $
KRDG - Reading, Pennsylvania, USA
Distance from station: N 29mi, 47km
Updated: Mon, 22-Apr-2019 4:54pm EDT
Mostly cloudy
Mostly cloudy
 Wind from NNW
Wind: NNW 15 mph , 24 km/h
Temperature: 70°F , 21°C
Dew Point: 50°F , 10°C
Humidity: 50%
Barometer: 30.01 inHg , 1016.3 hPa
Clouds: Mostly cloudy
Visibility: 10 miles , 16 km
Cloud details: Partly cloudy 5000 ft
Mostly cloudy 10000 ft
2019/04/22 20:54 KRDG 222054Z 33013KT 10SM SCT050 BKN100 21/10 A3001 RMK AO2 SLP168 T02060100 56015
 
KPTW - Pottstown, Pennsylvania, USA
Distance from station: NE 30mi, 48km
Updated: Mon, 22-Apr-2019 4:54pm EDT
Few Clouds
Few Clouds
 Wind from NNW
Wind: NNW 6 mph , 9 km/h
Temperature: 63°F , 17°C
Dew Point: 48°F , 9°C
Humidity: 59%
Barometer: 30.04 inHg , 1017.3 hPa
Clouds: Few Clouds
Visibility: 10 miles , 16 km
Cloud details: Few Clouds 9000 ft
2019/04/22 20:54 KPTW 222054Z AUTO 34005KT 10SM FEW090 17/09 A3004 RMK AO2 RAE23 SLP168 P0000 60000 T01720094 56007